createdAt,value
2019-02-04T00:02:01.446Z,4.03
2019-02-04T00:04:30.787Z,4.10
2019-02-04T00:06:59.976Z,4.25
2019-02-04T00:09:29.059Z,4.33
2019-02-04T00:11:58.099Z,4.25
2019-02-04T00:14:27.395Z,4.60
2019-02-04T00:16:56.459Z,5.20
2019-02-04T00:19:25.530Z,5.28
2019-02-04T00:21:54.519Z,4.45
2019-02-04T00:24:23.591Z,5.28
2019-02-04T00:26:52.601Z,4.45
2019-02-04T00:29:21.734Z,4.33
2019-02-04T00:31:50.799Z,5.70
2019-02-04T00:34:19.718Z,5.95
2019-02-04T00:36:48.578Z,5.20
2019-02-04T00:39:17.561Z,5.80
2019-02-04T00:41:46.590Z,6.33
2019-02-04T00:44:15.619Z,4.97
2019-02-04T00:46:51.997Z,5.97
2019-02-04T00:49:15.247Z,6.60
2019-02-04T00:51:44.206Z,5.75
2019-02-04T00:54:13.565Z,6.08
2019-02-04T00:56:42.599Z,6.37
2019-02-04T00:59:11.726Z,5.05
2019-02-04T01:01:40.808Z,6.58
2019-02-04T01:04:11.356Z,5.00
2019-02-04T01:06:40.377Z,5.97
2019-02-04T01:09:10.128Z,5.80
2019-02-04T01:11:39.236Z,5.30
2019-02-04T01:14:08.315Z,5.30
2019-02-04T01:16:37.385Z,5.83
2019-02-04T01:19:06.443Z,5.40
2019-02-04T01:21:35.591Z,6.17
2019-02-04T01:24:04.894Z,5.80
2019-02-04T01:26:33.913Z,5.40
2019-02-04T01:29:03.013Z,6.15
2019-02-04T01:31:32.021Z,5.40
2019-02-04T01:34:01.161Z,5.30
2019-02-04T01:36:30.068Z,5.90
2019-02-04T01:38:59.167Z,6.70
2019-02-04T01:41:28.300Z,4.90
2019-02-04T01:43:57.503Z,5.17
2019-02-04T01:46:26.669Z,5.35
2019-02-04T01:48:55.637Z,5.58
2019-02-04T01:51:24.549Z,5.62
2019-02-04T01:53:53.645Z,5.78
2019-02-04T01:56:22.628Z,4.67
2019-02-04T01:58:51.573Z,5.65
2019-02-04T02:01:20.612Z,5.45
2019-02-04T02:03:49.645Z,5.92
2019-02-04T02:06:18.540Z,4.97
2019-02-04T02:08:47.510Z,6.10
2019-02-04T02:11:16.546Z,5.28
2019-02-04T02:13:45.482Z,5.05
2019-02-04T02:16:14.372Z,5.75
2019-02-04T02:18:43.385Z,6.08
2019-02-04T02:21:12.888Z,6.10
2019-02-04T02:23:41.959Z,5.37
2019-02-04T02:26:11.010Z,5.15
2019-02-04T02:28:40.014Z,5.47
2019-02-04T02:31:09.072Z,5.58
2019-02-04T02:33:38.068Z,6.12
2019-02-04T02:36:07.372Z,5.50
2019-02-04T02:38:36.537Z,5.58
2019-02-04T02:41:05.600Z,5.30
2019-02-04T02:43:34.730Z,4.80
2019-02-04T02:46:04.104Z,5.40
2019-02-04T02:48:33.248Z,5.62
2019-02-04T02:51:02.582Z,6.10
2019-02-04T02:53:31.642Z,5.33
2019-02-04T02:56:00.708Z,6.20
2019-02-04T02:58:29.676Z,4.60
2019-02-04T03:00:58.929Z,4.80
2019-02-04T03:03:27.923Z,6.60
2019-02-04T03:05:57.226Z,5.85
2019-02-04T03:08:26.380Z,5.12
2019-02-04T03:10:55.418Z,5.90
2019-02-04T03:13:24.415Z,5.58
2019-02-04T03:15:53.567Z,5.58
2019-02-04T03:18:22.664Z,5.78
2019-02-04T03:20:51.809Z,6.53
2019-02-04T03:23:20.774Z,5.45
2019-02-04T03:25:49.776Z,5.30
2019-02-04T03:28:18.785Z,5.08
2019-02-04T03:30:47.824Z,5.03
2019-02-04T03:33:16.879Z,4.80
2019-02-04T03:35:46.284Z,5.35
2019-02-04T03:38:15.218Z,5.35
2019-02-04T03:40:44.261Z,4.92
2019-02-04T03:43:13.183Z,5.12
2019-02-04T03:45:42.235Z,5.72
2019-02-04T03:48:11.281Z,5.20
2019-02-04T03:50:40.399Z,4.95
2019-02-04T03:53:09.484Z,6.05
2019-02-04T03:55:38.929Z,6.20
2019-02-04T03:58:08.140Z,6.25
2019-02-04T04:00:37.480Z,6.28
2019-02-04T04:03:07.031Z,6.30
2019-02-04T04:05:36.720Z,5.35
2019-02-04T04:08:06.127Z,6.58
2019-02-04T04:10:35.275Z,7.53
2019-02-04T04:13:04.504Z,5.87
2019-02-04T04:15:34.110Z,7.28
2019-02-04T04:18:15.031Z,7.78
2019-02-04T04:20:34.940Z,7.33
2019-02-04T04:23:04.443Z,7.30
2019-02-04T04:25:33.761Z,8.05
2019-02-04T04:28:02.948Z,9.40
2019-02-04T04:30:32.155Z,8.75
2019-02-04T04:33:01.292Z,9.25
2019-02-04T04:35:30.398Z,8.45
2019-02-04T04:37:59.540Z,10.08
2019-02-04T04:40:28.622Z,9.88
2019-02-04T04:42:57.655Z,9.33
2019-02-04T04:45:26.949Z,10.10
2019-02-04T04:47:55.999Z,10.03
2019-02-04T04:50:25.184Z,10.70
2019-02-04T04:52:54.223Z,10.15
2019-02-04T04:55:25.180Z,10.10
2019-02-04T04:57:54.829Z,10.48
2019-02-04T05:00:27.123Z,10.23
2019-02-04T05:02:56.384Z,11.20
2019-02-04T05:05:25.505Z,11.75
2019-02-04T05:07:54.669Z,10.82
2019-02-04T05:10:25.193Z,12.37
2019-02-04T05:12:54.225Z,11.75
2019-02-04T05:15:25.592Z,11.70
2019-02-04T05:17:54.624Z,13.20
2019-02-04T05:20:24.017Z,11.00
2019-02-04T05:22:53.189Z,11.50
2019-02-04T05:25:22.564Z,11.45
2019-02-04T05:27:52.076Z,11.97
2019-02-04T05:30:22.459Z,14.85
2019-02-04T05:32:51.692Z,10.00
2019-02-04T05:35:21.145Z,11.22
2019-02-04T05:37:50.471Z,10.65
2019-02-04T05:40:19.699Z,11.80
2019-02-04T05:42:49.361Z,12.90
2019-02-04T05:45:19.187Z,11.12
2019-02-04T05:47:48.627Z,12.05
2019-02-04T05:50:18.636Z,11.83
2019-02-04T05:52:48.271Z,12.73
2019-02-04T05:55:18.953Z,11.43
2019-02-04T05:57:48.352Z,12.28
2019-02-04T06:00:22.678Z,11.60
2019-02-04T06:02:51.862Z,10.08
2019-02-04T06:05:21.357Z,10.70
2019-02-04T06:07:50.652Z,10.72
2019-02-04T06:10:20.258Z,10.35
2019-02-04T06:12:49.378Z,10.65
2019-02-04T06:15:18.983Z,8.90
2019-02-04T06:17:51.957Z,10.10
2019-02-04T06:20:22.192Z,9.70
2019-02-04T06:22:53.309Z,12.30
2019-02-04T06:25:26.006Z,8.65
2019-02-04T06:27:55.282Z,9.88
2019-02-04T06:30:27.601Z,8.55
2019-02-04T06:32:59.119Z,9.98
2019-02-04T06:35:42.026Z,8.40
2019-02-04T06:38:11.572Z,9.73
2019-02-04T06:45:10.360Z,7.28
2019-02-04T06:48:42.366Z,8.50
2019-02-04T06:51:16.890Z,7.45
2019-02-04T06:53:46.574Z,8.05
2019-02-04T06:56:15.764Z,8.20
2019-02-04T06:58:45.149Z,7.65
2019-02-04T07:01:14.573Z,7.17
2019-02-04T07:04:10.452Z,6.05
2019-02-04T07:10:17.756Z,5.90
2019-02-04T07:13:28.425Z,6.10
2019-02-04T07:18:26.417Z,5.28
2019-02-04T07:18:52.610Z,5.00
2019-02-04T07:22:26.171Z,6.65
2019-02-04T07:25:13.438Z,5.97
2019-02-04T07:28:28.150Z,6.20
2019-02-04T07:31:04.703Z,5.90
2019-02-04T07:33:43.343Z,4.55
2019-02-04T07:36:24.475Z,5.90
2019-02-04T07:42:11.424Z,5.37
2019-02-04T07:44:46.567Z,6.67
2019-02-04T07:51:02.006Z,8.20
2019-02-04T07:53:31.315Z,10.35
2019-02-04T07:56:00.590Z,10.58
2019-02-04T07:58:50.025Z,10.60
2019-02-04T08:01:24.166Z,10.20
2019-02-04T08:03:53.961Z,10.70
2019-02-04T08:06:23.345Z,10.40
2019-02-04T08:08:52.674Z,11.00
2019-02-04T08:11:22.068Z,10.40
2019-02-04T08:13:53.828Z,12.53
2019-02-04T08:16:22.995Z,11.43
2019-02-04T08:18:51.869Z,12.43
2019-02-04T08:21:21.134Z,11.57
2019-02-04T08:23:50.245Z,13.50
2019-02-04T08:26:19.272Z,13.25
2019-02-04T08:28:48.321Z,11.65
2019-02-04T08:31:17.538Z,11.33
2019-02-04T08:33:46.760Z,12.13
2019-02-04T08:36:16.107Z,12.00
2019-02-04T08:38:45.336Z,13.05
2019-02-04T08:41:14.490Z,13.70
2019-02-04T08:43:45.178Z,12.58
2019-02-04T08:46:37.951Z,11.88
2019-02-04T08:49:07.009Z,12.65
2019-02-04T08:51:50.645Z,12.00
2019-02-04T08:54:25.678Z,11.80
2019-02-04T08:56:55.055Z,11.90
2019-02-04T08:59:24.195Z,14.15
2019-02-04T09:01:53.331Z,13.45
2019-02-04T09:04:22.412Z,12.45
2019-02-04T09:06:51.515Z,13.85
2019-02-04T09:09:23.976Z,13.48
2019-02-04T09:12:03.440Z,12.50
2019-02-04T09:14:32.596Z,13.22
2019-02-04T09:20:10.305Z,14.35
2019-02-04T09:22:37.581Z,13.08
2019-02-04T09:25:30.435Z,14.93
2019-02-04T09:28:30.458Z,14.13
2019-02-04T09:30:59.665Z,14.75
2019-02-04T09:33:28.779Z,14.50
2019-02-04T09:35:57.855Z,14.50
2019-02-04T09:38:26.819Z,16.15
2019-02-04T09:40:55.845Z,13.65
2019-02-04T09:43:26.875Z,16.97
2019-02-04T09:45:55.874Z,14.70
2019-02-04T09:48:24.902Z,17.20
2019-02-04T09:51:18.751Z,15.58
2019-02-04T09:53:47.693Z,14.18
2019-02-04T09:56:16.860Z,17.07
2019-02-04T09:58:45.997Z,14.43
2019-02-04T10:01:24.409Z,14.35
2019-02-04T10:03:53.517Z,15.80
2019-02-04T10:06:33.108Z,14.78
2019-02-04T10:09:04.220Z,14.35
2019-02-04T10:11:33.301Z,14.93
2019-02-04T10:14:02.456Z,14.80
2019-02-04T10:16:32.028Z,14.33
2019-02-04T10:19:01.121Z,15.60
2019-02-04T10:21:30.437Z,15.15
2019-02-04T10:23:59.520Z,14.63
2019-02-04T10:26:28.717Z,16.25
2019-02-04T10:28:57.819Z,16.35
2019-02-04T10:31:26.897Z,14.85
2019-02-04T10:33:56.589Z,16.60
2019-02-04T10:36:25.825Z,14.95
2019-02-04T10:38:59.359Z,14.80
2019-02-04T10:41:28.640Z,14.90
2019-02-04T10:43:57.806Z,14.60
2019-02-04T10:46:27.000Z,14.33
2019-02-04T10:49:15.554Z,14.85
2019-02-04T10:51:46.699Z,14.55
2019-02-04T10:54:15.418Z,13.03
2019-02-04T10:56:44.651Z,13.48
2019-02-04T11:02:04.715Z,12.50
2019-02-04T11:04:33.854Z,12.25
2019-02-04T11:07:02.911Z,13.58
2019-02-04T11:09:32.119Z,11.40
2019-02-04T11:12:01.335Z,12.18
2019-02-04T11:14:41.876Z,12.13
2019-02-04T11:17:11.313Z,11.03
2019-02-04T11:19:50.793Z,11.28
2019-02-04T11:22:19.968Z,11.40
2019-02-04T11:24:49.977Z,12.33
2019-02-04T11:27:19.032Z,11.78
2019-02-04T11:30:09.788Z,11.68
2019-02-04T11:32:38.900Z,11.75
2019-02-04T11:35:09.230Z,11.80
2019-02-04T11:37:38.566Z,10.10
2019-02-04T11:40:08.663Z,11.60
2019-02-04T11:46:04.846Z,9.40
2019-02-04T11:48:34.792Z,10.15
2019-02-04T11:51:09.759Z,10.38
2019-02-04T11:53:47.796Z,10.15
2019-02-04T11:56:31.542Z,10.38
2019-02-04T11:59:12.760Z,11.05
2019-02-04T12:01:44.842Z,10.23
2019-02-04T12:04:33.371Z,10.40
2019-02-04T12:07:02.771Z,10.20
2019-02-04T12:09:32.565Z,9.23
2019-02-04T12:12:10.806Z,10.98
2019-02-04T12:14:40.159Z,8.83
2019-02-04T12:17:34.844Z,9.65
2019-02-04T12:20:09.458Z,9.58
2019-02-04T12:22:38.828Z,8.78
2019-02-04T12:25:10.117Z,9.90
2019-02-04T12:27:39.371Z,8.68
2019-02-04T12:30:34.114Z,8.85
2019-02-04T12:33:04.351Z,8.25
2019-02-04T12:35:33.777Z,8.80
2019-02-04T12:38:03.526Z,8.98
2019-02-04T12:40:33.345Z,9.63
2019-02-04T12:43:02.660Z,8.88
2019-02-04T12:45:33.293Z,8.18
2019-02-04T12:48:03.123Z,9.60
2019-02-04T12:51:03.924Z,9.10
2019-02-04T12:53:37.651Z,8.63
2019-02-04T12:56:05.730Z,8.20
2019-02-04T12:58:41.340Z,9.30
2019-02-04T13:01:29.717Z,9.20
2019-02-04T13:03:59.850Z,8.25
2019-02-04T13:06:29.516Z,8.48
2019-02-04T13:08:58.992Z,8.35
2019-02-04T13:11:28.283Z,7.62
2019-02-04T13:16:59.024Z,8.05
2019-02-04T13:22:23.172Z,7.15
2019-02-04T13:25:05.614Z,7.80
2019-02-04T13:27:37.289Z,6.70
2019-02-04T13:30:13.633Z,8.53
2019-02-04T13:35:59.126Z,6.42
2019-02-04T13:38:36.422Z,6.72
2019-02-04T13:41:24.013Z,7.83
2019-02-04T13:44:13.724Z,6.65
2019-02-04T13:46:53.213Z,7.80
2019-02-04T13:52:28.756Z,7.05
2019-02-04T13:55:02.028Z,7.28
2019-02-04T13:57:33.883Z,7.08
2019-02-04T14:00:08.748Z,7.25
2019-02-04T14:02:59.235Z,6.97
2019-02-04T14:05:31.312Z,6.75
2019-02-04T14:08:01.034Z,7.78
2019-02-04T14:10:35.217Z,7.17
2019-02-04T14:13:05.480Z,6.08
2019-02-04T14:15:35.804Z,6.72
2019-02-04T14:18:05.929Z,7.60
2019-02-04T14:20:35.290Z,7.37
2019-02-04T14:23:16.100Z,6.40
2019-02-04T14:26:05.076Z,7.00
2019-02-04T14:28:44.967Z,7.03
2019-02-04T14:31:20.655Z,7.15
2019-02-04T14:34:19.961Z,7.12
2019-02-04T14:36:49.453Z,8.13
2019-02-04T14:39:18.823Z,7.53
2019-02-04T14:41:48.234Z,6.08
2019-02-04T14:44:27.914Z,6.22
2019-02-04T14:47:25.876Z,6.92
2019-02-04T14:50:18.052Z,6.75
2019-02-04T14:53:42.475Z,6.10
2019-02-04T14:57:06.659Z,6.20
2019-02-04T14:59:50.865Z,7.25
2019-02-04T15:02:54.471Z,6.25
2019-02-04T15:05:43.795Z,6.50
2019-02-04T15:09:24.475Z,7.42
2019-02-04T15:12:37.295Z,6.42
2019-02-04T15:16:09.967Z,6.00
2019-02-04T15:19:44.345Z,5.97
2019-02-04T15:26:38.807Z,5.17
2019-02-04T15:29:46.886Z,5.55
2019-02-04T15:32:39.663Z,5.90
2019-02-04T15:35:59.808Z,6.28
2019-02-04T15:39:12.142Z,5.67
2019-02-04T15:42:05.738Z,6.20
2019-02-04T15:45:31.889Z,5.65
2019-02-04T15:48:21.258Z,6.67
2019-02-04T15:54:17.585Z,6.00
2019-02-04T16:00:15.811Z,6.30
2019-02-04T16:03:28.661Z,6.17
2019-02-04T16:07:34.255Z,6.00
2019-02-04T16:09:47.985Z,6.25
2019-02-04T16:16:16.106Z,7.05
2019-02-04T16:19:38.447Z,6.70
2019-02-04T16:22:35.060Z,4.92
2019-02-04T16:25:16.964Z,5.30
2019-02-04T16:28:43.396Z,7.65
2019-02-04T16:32:41.614Z,7.83
2019-02-04T16:35:29.155Z,5.10
2019-02-04T16:38:55.098Z,6.33
2019-02-04T16:41:57.310Z,5.95
2019-02-04T16:45:03.038Z,6.50
2019-02-04T16:51:11.686Z,6.37
2019-02-04T16:54:00.569Z,6.42
2019-02-04T16:56:33.009Z,5.80
2019-02-04T16:59:33.264Z,6.37
2019-02-04T17:02:40.029Z,7.30
2019-02-04T17:05:18.613Z,6.83
2019-02-04T17:08:17.140Z,6.37
2019-02-04T17:14:02.247Z,6.33
2019-02-04T17:17:12.661Z,6.03
2019-02-04T17:23:45.087Z,5.90
2019-02-04T17:26:35.425Z,7.30
2019-02-04T17:29:15.444Z,6.33
2019-02-04T17:31:51.367Z,6.42
2019-02-04T17:34:39.871Z,6.20
2019-02-04T17:37:27.078Z,7.20
2019-02-04T17:40:29.573Z,7.28
2019-02-04T17:43:59.832Z,7.28
2019-02-04T17:47:00.813Z,6.22
2019-02-04T17:49:18.288Z,7.12
2019-02-04T17:59:07.373Z,6.40
2019-02-04T18:01:49.171Z,6.72
2019-02-04T18:08:08.984Z,7.70
2019-02-04T18:10:38.546Z,6.72
2019-02-04T18:13:07.880Z,5.97
2019-02-04T18:15:37.155Z,6.08
2019-02-04T18:18:06.813Z,6.70
2019-02-04T18:20:59.773Z,6.55
2019-02-04T18:23:28.860Z,6.50
2019-02-04T18:25:57.917Z,6.83
2019-02-04T18:28:47.799Z,6.25
2019-02-04T18:37:55.239Z,6.75
2019-02-04T18:40:24.667Z,5.72
2019-02-04T18:43:39.055Z,6.83
2019-02-04T18:46:15.190Z,6.10
2019-02-04T18:48:46.374Z,6.10
2019-02-04T18:51:15.683Z,6.50
2019-02-04T18:54:00.090Z,6.58
2019-02-04T18:59:10.649Z,5.40
2019-02-04T19:01:39.846Z,5.85
2019-02-04T19:04:10.890Z,6.65
2019-02-04T19:06:47.410Z,6.40
2019-02-04T19:09:11.801Z,6.95
2019-02-04T19:11:45.400Z,5.70
2019-02-04T19:14:16.070Z,6.65
2019-02-04T19:16:45.710Z,6.55
2019-02-04T19:19:15.332Z,7.37
2019-02-04T19:21:44.756Z,6.28
2019-02-04T19:24:14.166Z,7.08
2019-02-04T19:26:43.751Z,7.10
2019-02-04T19:29:13.383Z,7.45
2019-02-04T19:31:42.906Z,6.50
2019-02-04T19:34:12.629Z,7.40
2019-02-04T19:36:42.263Z,6.60
2019-02-04T19:39:12.050Z,6.62
2019-02-04T19:41:43.465Z,6.22
2019-02-04T19:44:12.997Z,6.37
2019-02-04T19:46:43.093Z,6.87
2019-02-04T19:49:14.905Z,6.85
2019-02-04T19:51:44.700Z,6.03
2019-02-04T19:54:21.108Z,7.22
2019-02-04T19:56:45.628Z,6.92
2019-02-04T19:59:15.977Z,6.00
2019-02-04T20:01:48.550Z,8.10
2019-02-04T20:04:17.990Z,6.62
2019-02-04T20:06:47.159Z,6.97
2019-02-04T20:09:16.697Z,6.25
2019-02-04T20:11:46.195Z,6.28
2019-02-04T20:14:17.348Z,7.10
2019-02-04T20:16:46.878Z,6.40
2019-02-04T20:19:16.189Z,6.15
2019-02-04T20:21:45.737Z,6.10
2019-02-04T20:24:15.075Z,5.65
2019-02-04T20:26:45.445Z,5.55
2019-02-04T20:29:15.067Z,5.92
2019-02-04T20:31:44.588Z,7.20
2019-02-04T20:34:13.942Z,6.60
2019-02-04T20:36:43.464Z,5.97
2019-02-04T20:39:12.965Z,6.85
2019-02-04T20:41:42.629Z,7.08
2019-02-04T20:44:12.545Z,6.17
2019-02-04T20:46:42.427Z,6.83
2019-02-04T20:49:30.912Z,7.45
2019-02-04T20:52:00.474Z,7.05
2019-02-04T20:54:30.077Z,6.03
2019-02-04T20:56:59.676Z,6.35
2019-02-04T20:59:31.260Z,7.42
2019-02-04T21:02:02.171Z,6.80
2019-02-04T21:04:31.633Z,6.92
2019-02-04T21:07:07.437Z,6.53
2019-02-04T21:09:33.657Z,7.10
2019-02-04T21:12:03.162Z,7.20
2019-02-04T21:14:32.573Z,7.10
2019-02-04T21:17:03.346Z,7.47
2019-02-04T21:20:12.951Z,7.05
2019-02-04T21:22:59.173Z,6.15
2019-02-04T21:26:09.551Z,6.80
2019-02-04T21:28:45.449Z,7.03
2019-02-04T21:31:16.948Z,8.23
2019-02-04T21:33:46.321Z,7.33
2019-02-04T21:36:22.733Z,7.72
2019-02-04T21:39:11.010Z,7.17
2019-02-04T21:41:40.366Z,8.38
2019-02-04T21:44:09.483Z,9.60
2019-02-04T21:46:38.758Z,8.73
2019-02-04T21:49:08.206Z,8.10
2019-02-04T21:51:41.814Z,6.75
2019-02-04T21:54:38.459Z,7.78
2019-02-04T21:57:34.773Z,7.70
2019-02-04T22:00:53.088Z,7.03
2019-02-04T22:03:54.828Z,8.08
2019-02-04T22:06:35.301Z,7.60
2019-02-04T22:09:35.982Z,8.28
2019-02-04T22:12:11.716Z,7.55
2019-02-04T22:18:12.023Z,7.08
2019-02-04T22:20:43.225Z,6.67
2019-02-04T22:26:33.587Z,8.50
2019-02-04T22:29:47.332Z,7.40
2019-02-04T22:32:51.534Z,7.75
2019-02-04T22:35:22.727Z,9.45
2019-02-04T22:37:53.893Z,8.60
2019-02-04T22:40:50.102Z,8.78
2019-02-04T22:44:02.172Z,10.03
2019-02-04T22:49:27.515Z,8.45
2019-02-04T22:52:40.125Z,8.88
2019-02-04T22:55:15.811Z,9.05
2019-02-04T22:58:16.941Z,9.95
2019-02-04T23:01:25.524Z,10.10
2019-02-04T23:03:54.572Z,8.55
2019-02-04T23:06:23.639Z,10.00
2019-02-04T23:08:52.860Z,9.48
2019-02-04T23:11:22.172Z,8.98
2019-02-04T23:13:51.226Z,10.03
2019-02-04T23:16:20.242Z,10.93
2019-02-04T23:18:49.483Z,9.80
2019-02-04T23:21:18.677Z,10.85
2019-02-04T23:23:47.919Z,10.05
2019-02-04T23:26:17.064Z,11.00
2019-02-04T23:28:46.001Z,11.45
2019-02-04T23:31:15.157Z,12.47
2019-02-04T23:33:44.157Z,9.83
2019-02-04T23:36:13.338Z,11.25
2019-02-04T23:38:42.481Z,12.68
2019-02-04T23:41:11.695Z,11.03
2019-02-04T23:43:40.635Z,11.78
2019-02-04T23:46:09.679Z,12.23
2019-02-04T23:48:38.583Z,10.55
2019-02-04T23:51:07.564Z,11.30
2019-02-04T23:53:36.504Z,10.80
2019-02-04T23:56:05.768Z,11.25
2019-02-04T23:58:34.789Z,10.85
